createdAt,value
2019-04-24T00:02:01.986Z,99.90
2019-04-24T00:04:43.907Z,99.90
2019-04-24T00:06:57.667Z,99.90
2019-04-24T00:09:21.839Z,99.90
2019-04-24T00:17:17.704Z,99.90
2019-04-24T00:19:58.583Z,99.90
2019-04-24T00:25:03.300Z,99.90
2019-04-24T00:27:21.841Z,99.90
2019-04-24T00:30:01.888Z,99.90
2019-04-24T00:34:54.386Z,99.90
2019-04-24T00:37:40.782Z,99.90
2019-04-24T00:42:35.817Z,99.90
2019-04-24T00:47:36.388Z,99.90
2019-04-24T00:52:20.101Z,99.90
2019-04-24T00:54:55.709Z,99.90
2019-04-24T00:59:48.573Z,99.90
2019-04-24T01:23:15.372Z,99.90
2019-04-24T01:28:02.966Z,99.90
2019-04-24T01:30:46.962Z,99.90
2019-04-24T01:33:22.719Z,99.90
2019-04-24T01:35:50.891Z,99.90
2019-04-24T01:40:53.909Z,99.90
2019-04-24T01:45:54.257Z,99.90
2019-04-24T01:53:18.775Z,99.90
2019-04-24T01:55:57.622Z,99.90
2019-04-24T01:58:25.881Z,99.90
2019-04-24T02:01:05.019Z,99.90
2019-04-24T02:03:20.485Z,99.90
2019-04-24T02:06:00.248Z,99.90
2019-04-24T02:11:28.445Z,99.90
2019-04-24T02:16:00.981Z,99.90
2019-04-24T02:18:43.544Z,99.90
2019-04-24T02:21:04.268Z,99.90
2019-04-24T02:23:39.932Z,99.90
2019-04-24T02:28:37.463Z,99.90
2019-04-24T02:31:22.239Z,99.90
2019-04-24T02:41:44.610Z,99.90
2019-04-24T02:44:32.026Z,99.90
2019-04-24T02:46:51.891Z,99.90
2019-04-24T02:51:45.716Z,99.90
2019-04-24T02:54:29.224Z,99.90
2019-04-24T02:56:43.686Z,99.90
2019-04-24T03:01:44.677Z,99.90
2019-04-24T03:07:00.286Z,99.90
2019-04-24T03:12:22.864Z,99.90
2019-04-24T03:14:30.796Z,99.90
2019-04-24T03:17:20.006Z,99.90
2019-04-24T03:19:45.959Z,99.90
2019-04-24T03:27:27.381Z,99.90
2019-04-24T03:40:44.300Z,99.90
2019-04-24T03:47:52.201Z,99.90
2019-04-24T03:50:49.603Z,99.90
2019-04-24T03:53:00.716Z,99.90
2019-04-24T03:55:35.497Z,99.90
2019-04-24T03:58:06.376Z,99.90
2019-04-24T04:00:44.625Z,99.90
2019-04-24T04:03:04.683Z,99.90
2019-04-24T04:08:29.707Z,99.90
2019-04-24T04:10:34.458Z,99.90
2019-04-24T04:15:26.553Z,99.90
2019-04-24T04:25:58.370Z,99.90
2019-04-24T04:31:24.475Z,99.90
2019-04-24T04:34:07.563Z,99.90
2019-04-24T04:41:29.716Z,99.90
2019-04-24T04:46:45.274Z,99.90
2019-04-24T04:49:38.316Z,99.90
2019-04-24T04:51:44.004Z,99.90
2019-04-24T04:54:59.210Z,99.90
2019-04-24T04:56:51.443Z,99.90
2019-04-24T04:59:36.265Z,99.90
2019-04-24T05:02:02.840Z,99.90
2019-04-24T05:04:45.330Z,99.90
2019-04-24T05:17:07.987Z,99.90
2019-04-24T05:22:08.106Z,99.90
2019-04-24T05:24:36.259Z,99.90
2019-04-24T05:29:46.752Z,99.90
2019-04-24T05:32:34.754Z,99.90
2019-04-24T05:40:24.747Z,99.90
2019-04-24T05:45:22.931Z,99.90
2019-04-24T05:47:56.128Z,99.90
2019-04-24T05:50:43.449Z,99.90
2019-04-24T05:58:24.596Z,99.90
2019-04-24T06:01:02.834Z,99.90
2019-04-24T06:06:36.067Z,99.90
2019-04-24T06:08:54.394Z,99.90
2019-04-24T06:11:36.457Z,99.90
2019-04-24T06:13:44.635Z,99.90
2019-04-24T06:16:48.439Z,99.90
2019-04-24T06:19:19.441Z,99.90
2019-04-24T06:21:40.234Z,99.90
2019-04-24T06:32:14.313Z,99.90
2019-04-24T06:34:20.041Z,99.90
2019-04-24T06:39:43.929Z,99.90
2019-04-24T06:47:41.480Z,99.90
2019-04-24T06:49:25.946Z,99.90
2019-04-24T07:00:05.725Z,99.90
2019-04-24T07:02:38.810Z,99.90
2019-04-24T07:07:52.389Z,99.90
2019-04-24T07:13:49.209Z,99.90
2019-04-24T07:18:29.907Z,99.90
2019-04-24T07:23:38.606Z,99.90
2019-04-24T07:26:16.582Z,99.90
2019-04-24T07:33:57.343Z,99.90
2019-04-24T07:36:38.947Z,99.90
2019-04-24T07:38:53.866Z,99.90
2019-04-24T07:41:45.488Z,99.90
2019-04-24T07:46:35.455Z,99.90
2019-04-24T07:54:14.687Z,99.90
2019-04-24T07:59:43.088Z,99.90
2019-04-24T08:04:43.672Z,99.90
2019-04-24T08:20:10.388Z,99.90
2019-04-24T08:25:05.631Z,99.90
2019-04-24T08:27:39.547Z,99.90
2019-04-24T08:32:33.123Z,99.90
2019-04-24T08:34:52.119Z,99.90
2019-04-24T08:37:53.915Z,99.90
2019-04-24T08:40:47.990Z,99.90
2019-04-24T08:43:10.017Z,99.90
2019-04-24T08:48:12.413Z,99.90
2019-04-24T08:53:07.656Z,99.90
2019-04-24T09:08:42.138Z,99.00
2019-04-24T09:11:29.559Z,97.60
2019-04-24T09:14:00.535Z,96.20
2019-04-24T09:16:41.435Z,96.10
2019-04-24T09:19:02.917Z,95.30
2019-04-24T09:21:23.496Z,95.40
2019-04-24T09:31:50.203Z,93.20
2019-04-24T09:34:02.319Z,92.20
2019-04-24T09:36:53.252Z,91.70
2019-04-24T09:39:27.702Z,91.60
2019-04-24T09:42:05.060Z,91.50
2019-04-24T09:44:11.239Z,90.60
2019-04-24T09:49:13.485Z,90.10
2019-04-24T09:51:58.721Z,90.70
2019-04-24T09:54:33.253Z,90.70
2019-04-24T09:57:10.283Z,90.70
2019-04-24T09:59:28.749Z,88.00
2019-04-24T10:02:22.023Z,88.00
2019-04-24T10:04:59.504Z,88.70
2019-04-24T10:10:00.316Z,90.30
2019-04-24T10:14:58.723Z,86.50
2019-04-24T10:17:33.252Z,87.40
2019-04-24T10:22:45.804Z,85.00
2019-04-24T10:25:12.165Z,83.30
2019-04-24T10:30:22.015Z,83.80
2019-04-24T10:32:57.994Z,84.40
2019-04-24T10:35:42.129Z,80.20
2019-04-24T10:38:23.198Z,78.60
2019-04-24T10:40:55.430Z,78.20
2019-04-24T10:43:25.115Z,76.80
2019-04-24T10:45:58.235Z,77.30
2019-04-24T10:48:51.090Z,77.70
2019-04-24T10:51:45.543Z,76.20
2019-04-24T10:53:48.747Z,77.20
2019-04-24T10:58:45.372Z,75.60
2019-04-24T11:01:23.696Z,74.40
2019-04-24T11:04:03.143Z,71.90
2019-04-24T11:06:36.615Z,70.70
2019-04-24T11:09:17.075Z,69.90
2019-04-24T11:11:45.711Z,70.90
2019-04-24T11:17:11.244Z,69.00
2019-04-24T11:19:35.770Z,66.50
2019-04-24T11:22:07.602Z,63.40
2019-04-24T11:24:39.502Z,65.00
2019-04-24T11:27:14.013Z,62.80
2019-04-24T11:30:02.154Z,63.00
2019-04-24T11:35:17.253Z,61.50
2019-04-24T11:37:32.932Z,61.80
2019-04-24T11:40:26.751Z,60.10
2019-04-24T11:50:53.578Z,59.60
2019-04-24T11:53:10.678Z,57.10
2019-04-24T12:00:31.933Z,58.00
2019-04-24T12:03:14.370Z,56.80
2019-04-24T12:05:57.527Z,57.00
2019-04-24T12:08:55.096Z,56.40
2019-04-24T12:11:31.061Z,56.10
2019-04-24T12:19:02.319Z,55.30
2019-04-24T12:24:05.848Z,55.70
2019-04-24T12:31:51.166Z,55.70
2019-04-24T12:34:11.690Z,55.30
2019-04-24T12:36:52.195Z,55.30
2019-04-24T12:39:07.934Z,56.10
2019-04-24T12:41:44.321Z,55.90
2019-04-24T12:44:28.303Z,55.10
2019-04-24T12:52:00.324Z,55.60
2019-04-24T12:57:27.611Z,54.60
2019-04-24T12:59:48.122Z,53.70
2019-04-24T13:05:19.733Z,54.90
2019-04-24T13:12:58.759Z,55.30
2019-04-24T13:15:52.196Z,55.30
2019-04-24T13:18:11.457Z,55.70
2019-04-24T13:20:17.532Z,55.20
2019-04-24T13:22:53.122Z,54.50
2019-04-24T13:25:43.187Z,54.80
2019-04-24T13:28:39.664Z,54.60
2019-04-24T13:31:13.984Z,54.60
2019-04-24T13:33:39.251Z,54.50
2019-04-24T13:38:45.224Z,53.50
2019-04-24T13:41:00.186Z,53.70
2019-04-24T13:51:09.946Z,54.50
2019-04-24T13:53:56.732Z,54.60
2019-04-24T13:56:03.361Z,54.40
2019-04-24T13:58:44.314Z,54.70
2019-04-24T14:12:19.172Z,56.30
2019-04-24T14:21:46.060Z,56.40
2019-04-24T14:24:17.206Z,56.90
2019-04-24T14:26:43.861Z,57.20
2019-04-24T14:29:13.183Z,57.80
2019-04-24T14:31:44.385Z,57.30
2019-04-24T14:34:19.376Z,57.90
2019-04-24T14:36:44.547Z,57.20
2019-04-24T14:39:19.964Z,57.10
2019-04-24T14:46:52.895Z,56.60
2019-04-24T14:49:30.922Z,54.70
2019-04-24T14:54:15.921Z,53.80
2019-04-24T14:56:53.358Z,53.60
2019-04-24T15:01:56.361Z,53.80
2019-04-24T15:04:18.968Z,53.60
2019-04-24T15:12:06.769Z,52.10
2019-04-24T15:15:01.830Z,52.70
2019-04-24T15:17:01.889Z,52.40
2019-04-24T15:19:35.038Z,53.10
2019-04-24T15:22:13.573Z,53.10
2019-04-24T15:26:57.827Z,53.80
2019-04-24T15:29:26.111Z,54.20
2019-04-24T15:32:09.201Z,54.50
2019-04-24T15:34:33.403Z,53.80
2019-04-24T15:37:09.844Z,53.80
2019-04-24T15:39:43.044Z,54.60
2019-04-24T15:42:02.273Z,54.90
2019-04-24T15:44:33.097Z,55.20
2019-04-24T15:51:34.813Z,56.50
2019-04-24T15:54:01.217Z,57.30
2019-04-24T15:56:29.708Z,57.30
2019-04-24T15:59:16.614Z,57.40
2019-04-24T16:02:04.462Z,57.60
2019-04-24T16:06:32.267Z,58.20
2019-04-24T16:09:02.381Z,58.40
2019-04-24T16:11:31.273Z,58.80
2019-04-24T16:14:10.254Z,59.00
2019-04-24T16:17:05.842Z,62.60
2019-04-24T16:22:09.286Z,67.30
2019-04-24T16:26:59.470Z,71.60
2019-04-24T16:29:21.323Z,73.50
2019-04-24T16:37:06.463Z,81.60
2019-04-24T16:39:21.067Z,84.10
2019-04-24T16:42:41.091Z,90.30
2019-04-24T16:44:48.048Z,92.20
2019-04-24T16:47:13.527Z,97.60
2019-04-24T16:50:18.225Z,99.90
2019-04-24T16:54:48.764Z,99.90
2019-04-24T16:57:22.528Z,99.90
2019-04-24T16:59:51.905Z,99.90
2019-04-24T17:02:12.411Z,99.90
2019-04-24T17:05:16.603Z,99.90
2019-04-24T17:07:16.324Z,99.90
2019-04-24T17:09:57.771Z,99.90
2019-04-24T17:12:19.144Z,99.90
2019-04-24T17:14:48.312Z,99.90
2019-04-24T17:20:03.606Z,99.90
2019-04-24T17:22:28.962Z,99.90
2019-04-24T17:25:01.089Z,99.90
2019-04-24T17:32:39.647Z,99.90
2019-04-24T17:35:13.318Z,99.90
2019-04-24T17:37:03.026Z,99.90
2019-04-24T17:39:39.449Z,99.90
2019-04-24T17:42:22.396Z,99.90
2019-04-24T17:45:10.755Z,99.90
2019-04-24T17:47:39.974Z,99.90
2019-04-24T17:52:48.607Z,99.90
2019-04-24T17:55:04.538Z,99.90
2019-04-24T17:59:43.803Z,99.90
2019-04-24T18:02:14.580Z,99.90
2019-04-24T18:04:43.271Z,99.90
2019-04-24T18:07:14.474Z,99.90
2019-04-24T18:09:42.746Z,99.90
2019-04-24T18:12:12.776Z,99.90
2019-04-24T18:14:41.490Z,99.90
2019-04-24T18:17:10.918Z,99.90
2019-04-24T18:19:40.070Z,99.90
2019-04-24T18:22:09.251Z,99.90
2019-04-24T18:24:52.161Z,99.90
2019-04-24T18:27:25.533Z,99.90
2019-04-24T18:29:53.997Z,99.90
2019-04-24T18:32:24.345Z,99.90
2019-04-24T18:34:52.897Z,99.90
2019-04-24T18:37:21.525Z,99.90
2019-04-24T18:39:51.344Z,99.90
2019-04-24T18:42:21.293Z,99.90
2019-04-24T18:44:49.916Z,99.90
2019-04-24T18:47:18.380Z,99.90
2019-04-24T18:49:46.979Z,99.90
2019-04-24T18:52:15.513Z,99.90
2019-04-24T18:54:44.074Z,99.90
2019-04-24T18:57:12.933Z,99.90
2019-04-24T18:59:43.163Z,99.90
2019-04-24T19:02:12.959Z,99.90
2019-04-24T19:04:41.857Z,99.90
2019-04-24T19:07:11.029Z,99.90
2019-04-24T19:09:39.539Z,99.90
2019-04-24T19:12:09.020Z,99.90
2019-04-24T19:14:37.684Z,99.90
2019-04-24T19:17:07.720Z,99.90
2019-04-24T19:19:36.418Z,99.90
2019-04-24T19:22:08.252Z,99.90
2019-04-24T19:24:37.004Z,99.90
2019-04-24T19:27:05.549Z,99.90
2019-04-24T19:29:34.081Z,99.90
2019-04-24T19:32:02.708Z,99.90
2019-04-24T19:34:32.579Z,99.90
2019-04-24T19:37:01.313Z,99.90
2019-04-24T19:39:29.869Z,99.90
2019-04-24T19:41:58.329Z,99.90
2019-04-24T19:44:26.798Z,99.90
2019-04-24T19:46:55.349Z,99.90
2019-04-24T19:49:26.047Z,99.90
2019-04-24T19:51:53.985Z,99.90
2019-04-24T19:54:22.975Z,99.90
2019-04-24T19:56:51.933Z,99.90
2019-04-24T19:59:21.007Z,99.90
2019-04-24T20:01:50.641Z,99.90
2019-04-24T20:04:19.529Z,99.90
2019-04-24T20:06:48.012Z,99.90
2019-04-24T20:09:27.323Z,99.90
2019-04-24T20:11:56.990Z,99.90
2019-04-24T20:14:25.445Z,99.90
2019-04-24T20:16:53.937Z,99.90
2019-04-24T20:19:23.003Z,99.90
2019-04-24T20:21:52.419Z,99.90
2019-04-24T20:24:21.564Z,99.90
2019-04-24T20:26:50.451Z,99.90
2019-04-24T20:29:20.648Z,99.90
2019-04-24T20:31:51.628Z,99.90
2019-04-24T20:34:22.157Z,99.90
2019-04-24T20:36:51.624Z,99.90
2019-04-24T20:39:21.538Z,99.90
2019-04-24T20:41:51.931Z,99.90
2019-04-24T20:44:20.500Z,99.90
2019-04-24T20:46:48.959Z,99.90
2019-04-24T20:49:18.029Z,99.90
2019-04-24T20:51:46.656Z,99.90
2019-04-24T20:54:15.189Z,99.90
2019-04-24T20:56:43.649Z,99.90
2019-04-24T20:59:12.659Z,99.90
2019-04-24T21:01:41.817Z,99.90
2019-04-24T21:04:11.819Z,99.90
2019-04-24T21:06:42.352Z,99.90
2019-04-24T21:09:29.124Z,99.90
2019-04-24T21:11:57.701Z,99.90
2019-04-24T21:14:26.758Z,99.90
2019-04-24T21:16:55.355Z,99.90
2019-04-24T21:19:24.809Z,99.90
2019-04-24T21:21:53.708Z,99.90
2019-04-24T21:24:25.730Z,99.90
2019-04-24T21:26:52.404Z,99.90
2019-04-24T21:29:23.262Z,99.90
2019-04-24T21:31:51.767Z,99.90
2019-04-24T21:34:22.262Z,99.90
2019-04-24T21:36:52.124Z,99.90
2019-04-24T21:39:23.216Z,99.90
2019-04-24T21:41:51.625Z,99.90
2019-04-24T21:44:23.689Z,99.90
2019-04-24T21:46:52.360Z,99.90
2019-04-24T21:49:22.428Z,99.90
2019-04-24T21:51:51.595Z,99.90
2019-04-24T21:54:21.428Z,99.90
2019-04-24T21:56:51.331Z,99.90
2019-04-24T21:59:21.487Z,99.90
2019-04-24T22:02:11.184Z,99.90
2019-04-24T22:04:42.431Z,99.90
2019-04-24T22:07:12.692Z,99.90
2019-04-24T22:09:42.450Z,99.90
2019-04-24T22:12:11.267Z,99.90
2019-04-24T22:14:40.043Z,99.90
2019-04-24T22:17:09.137Z,99.90
2019-04-24T22:19:38.241Z,99.90
2019-04-24T22:22:11.625Z,99.90
2019-04-24T22:24:41.823Z,99.90
2019-04-24T22:27:12.155Z,99.90
2019-04-24T22:29:40.749Z,99.90
2019-04-24T22:32:27.409Z,99.90
2019-04-24T22:35:06.304Z,99.90
2019-04-24T22:37:35.330Z,99.90
2019-04-24T22:40:17.146Z,99.90
2019-04-24T22:42:46.053Z,99.90
2019-04-24T22:45:15.316Z,99.90
2019-04-24T22:47:44.126Z,99.90
2019-04-24T22:50:13.152Z,99.90
2019-04-24T22:52:41.680Z,99.90
2019-04-24T22:55:15.753Z,99.90
2019-04-24T22:57:45.784Z,99.90
2019-04-24T23:00:18.692Z,99.90
2019-04-24T23:02:47.162Z,99.90
2019-04-24T23:05:15.725Z,99.90
2019-04-24T23:07:44.193Z,99.90
2019-04-24T23:10:13.045Z,99.90
2019-04-24T23:12:41.853Z,99.90
2019-04-24T23:15:10.815Z,99.90
2019-04-24T23:17:40.303Z,99.90
2019-04-24T23:20:11.519Z,99.90
2019-04-24T23:22:59.837Z,99.90
2019-04-24T23:25:36.146Z,99.90
2019-04-24T23:28:33.038Z,99.90
2019-04-24T23:31:12.075Z,99.90
2019-04-24T23:33:44.741Z,99.90
2019-04-24T23:36:12.500Z,99.90
2019-04-24T23:38:41.933Z,99.90
2019-04-24T23:41:12.831Z,99.90
2019-04-24T23:43:41.538Z,99.90
2019-04-24T23:46:11.582Z,99.90
2019-04-24T23:48:41.554Z,99.90
2019-04-24T23:51:10.626Z,99.90
2019-04-24T23:53:39.591Z,99.90
2019-04-24T23:56:08.645Z,99.90
2019-04-24T23:58:37.766Z,99.90
